Time;durP1;ratioP1;P1;durP2;ratioP2;P2;SDS_P1;SDS_P2;PMS_P1;PMS_P2;Temp;Humidity;BMP_temperature;BMP_pressure;BME280_temperature;BME280_humidity;BME280_pressure;Samples;Min_cycle;Max_cycle;Signal;HPM_P1;HPM_P2
2022/07/25 00:01:58;;;;;;;8.00;5.80;;;23.80;99.90;;;;;;5071046;28;20477;-63
2022/07/25 00:04:23;;;;;;;7.88;5.78;;;23.90;99.90;;;;;;5071342;28;20033;-64
2022/07/25 00:06:49;;;;;;;10.23;6.07;;;23.90;99.90;;;;;;5070708;28;20054;-63
2022/07/25 00:09:15;;;;;;;6.97;5.50;;;23.80;99.90;;;;;;5071252;28;20031;-64
2022/07/25 00:11:40;;;;;;;9.35;5.78;;;23.80;99.90;;;;;;5071139;28;20104;-63
2022/07/25 00:14:06;;;;;;;8.57;5.88;;;23.70;99.90;;;;;;5070911;28;20071;-63
2022/07/25 00:16:32;;;;;;;10.50;5.70;;;23.40;99.90;;;;;;5071181;28;20056;-63
2022/07/25 00:18:57;;;;;;;9.48;5.30;;;23.50;99.90;;;;;;5071033;28;20036;-63
2022/07/25 00:21:23;;;;;;;6.65;5.90;;;23.60;99.90;;;;;;5071022;28;20021;-63
2022/07/25 00:23:49;;;;;;;8.15;5.85;;;23.50;99.90;;;;;;5070850;28;20035;-63
2022/07/25 00:26:15;;;;;;;8.15;6.10;;;23.60;99.90;;;;;;5071020;28;20359;-63
2022/07/25 00:28:41;;;;;;;7.13;5.85;;;23.50;99.90;;;;;;5071177;28;20033;-64
2022/07/25 00:31:07;;;;;;;9.20;5.68;;;23.60;99.90;;;;;;5071069;28;20497;-63
2022/07/25 00:33:33;;;;;;;8.40;5.97;;;23.40;99.90;;;;;;5070900;28;20058;-63
2022/07/25 00:35:58;;;;;;;10.68;6.28;;;23.30;99.90;;;;;;5073050;28;20044;-64
2022/07/25 00:38:24;;;;;;;6.25;5.65;;;23.10;99.90;;;;;;5074648;28;20032;-63
2022/07/25 00:40:50;;;;;;;10.15;6.32;;;22.80;99.90;;;;;;5074724;28;20028;-63
2022/07/25 00:43:15;;;;;;;7.85;6.03;;;22.70;99.90;;;;;;5074402;28;20052;-64
2022/07/25 00:45:41;;;;;;;9.00;6.07;;;22.70;99.90;;;;;;5074569;28;20112;-63
2022/07/25 00:48:07;;;;;;;13.68;5.97;;;22.60;99.90;;;;;;5074500;28;20032;-63
2022/07/25 00:50:35;;;;;;;9.27;6.40;;;22.60;99.90;;;;;;5074452;28;20174;-63
2022/07/25 00:53:00;;;;;;;7.18;6.20;;;22.60;99.90;;;;;;5074033;28;20056;-63
2022/07/25 00:55:28;;;;;;;11.35;6.20;;;22.60;99.90;;;;;;5074297;28;20429;-63
2022/07/25 00:57:53;;;;;;;8.38;6.38;;;22.60;99.90;;;;;;5074283;28;20044;-63
2022/07/25 01:00:19;;;;;;;10.93;6.28;;;22.90;99.90;;;;;;5074062;28;20025;-63
2022/07/25 01:02:45;;;;;;;11.98;6.88;;;22.70;99.90;;;;;;5074183;28;20100;-63
2022/07/25 01:05:11;;;;;;;11.25;6.95;;;22.50;99.90;;;;;;5074549;28;20119;-63
2022/07/25 01:07:38;;;;;;;9.75;7.20;;;22.30;99.90;;;;;;5074309;28;20029;-63
2022/07/25 01:10:06;;;;;;;11.27;7.25;;;22.20;99.90;;;;;;5074224;28;20033;-64
2022/07/25 01:12:31;;;;;;;7.18;6.47;;;22.30;99.90;;;;;;5072458;28;20489;-63
2022/07/25 01:14:57;;;;;;;11.23;6.75;;;22.30;99.90;;;;;;5074115;28;20119;-63
2022/07/25 01:17:23;;;;;;;13.25;6.43;;;22.10;99.90;;;;;;5073980;28;20017;-63
2022/07/25 01:19:50;;;;;;;11.38;7.07;;;22.00;99.90;;;;;;5074109;28;20035;-63
2022/07/25 01:22:16;;;;;;;11.68;7.10;;;22.00;99.90;;;;;;5072539;28;20059;-63
2022/07/25 01:24:42;;;;;;;11.50;6.30;;;21.90;99.90;;;;;;5072514;28;20115;-63
2022/07/25 01:27:08;;;;;;;11.90;6.80;;;21.80;99.90;;;;;;5073736;28;20019;-64
2022/07/25 01:29:33;;;;;;;9.98;6.38;;;21.80;99.90;;;;;;5073861;28;20496;-63
2022/07/25 01:31:59;;;;;;;12.20;6.78;;;21.70;99.90;;;;;;5073493;28;20024;-62
2022/07/25 01:34:25;;;;;;;11.60;6.65;;;21.80;99.90;;;;;;5073520;28;20094;-63
2022/07/25 01:36:50;;;;;;;9.75;7.03;;;21.80;99.90;;;;;;5072047;28;20021;-63
2022/07/25 01:39:16;;;;;;;8.60;6.57;;;21.90;99.90;;;;;;5073717;28;20393;-64
2022/07/25 01:41:42;;;;;;;11.27;6.97;;;21.80;99.90;;;;;;5073512;28;20024;-64
2022/07/25 01:44:07;;;;;;;10.57;7.45;;;21.80;99.90;;;;;;5073275;28;20401;-62
2022/07/25 01:46:39;;;;;;;13.05;7.47;;;21.80;99.90;;;;;;5073117;28;20420;-62
2022/07/25 01:49:05;;;;;;;8.30;7.07;;;21.60;99.90;;;;;;5073786;28;20115;-63
2022/07/25 01:51:31;;;;;;;15.27;7.40;;;21.60;99.90;;;;;;5071854;28;20086;-62
2022/07/25 01:53:56;;;;;;;11.70;7.00;;;21.60;99.90;;;;;;5073486;28;20511;-64
2022/07/25 01:56:22;;;;;;;10.25;7.18;;;21.50;99.90;;;;;;5073471;28;20119;-63
2022/07/25 01:58:48;;;;;;;7.75;6.90;;;21.50;99.90;;;;;;5072224;28;20101;-63
2022/07/25 02:01:13;;;;;;;15.23;7.28;;;21.60;99.90;;;;;;5073678;28;20031;-63
2022/07/25 02:03:39;;;;;;;11.60;6.97;;;21.50;99.90;;;;;;5073360;28;20032;-63
2022/07/25 02:06:06;;;;;;;10.98;7.25;;;21.40;99.90;;;;;;5073578;28;20562;-62
2022/07/25 02:08:33;;;;;;;12.13;7.43;;;21.30;99.90;;;;;;5072197;28;20127;-62
2022/07/25 02:10:59;;;;;;;10.88;7.25;;;21.30;99.90;;;;;;5072803;28;20064;-63
2022/07/25 02:13:25;;;;;;;8.55;7.05;;;21.20;99.90;;;;;;5072792;28;20060;-63
2022/07/25 02:15:51;;;;;;;8.18;7.20;;;21.20;99.90;;;;;;5072642;28;20021;-63
2022/07/25 02:18:17;;;;;;;12.23;7.18;;;21.10;99.90;;;;;;5073269;28;20035;-63
2022/07/25 02:20:43;;;;;;;8.85;7.78;;;21.00;99.90;;;;;;5073015;28;20025;-63
2022/07/25 02:23:08;;;;;;;8.63;7.72;;;20.90;99.90;;;;;;5072707;28;20025;-63
2022/07/25 02:25:35;;;;;;;10.57;7.97;;;20.90;99.90;;;;;;5071381;28;20025;-63
2022/07/25 02:28:00;;;;;;;11.52;7.95;;;20.90;99.90;;;;;;5071868;28;20508;-63
2022/07/25 02:30:26;;;;;;;7.70;6.75;;;20.90;99.90;;;;;;5072494;28;20028;-63
2022/07/25 02:32:52;;;;;;;11.68;7.95;;;20.90;99.90;;;;;;5072227;28;20039;-63
2022/07/25 02:35:18;;;;;;;11.13;7.68;;;20.70;99.90;;;;;;5072173;28;20103;-62
2022/07/25 02:37:44;;;;;;;9.90;7.80;;;20.80;99.90;;;;;;5072349;28;20453;-63
2022/07/25 02:40:10;;;;;;;9.73;7.90;;;20.80;99.90;;;;;;5072314;28;20432;-63
2022/07/25 02:42:36;;;;;;;9.27;7.97;;;20.90;99.90;;;;;;5072130;28;20067;-64
2022/07/25 02:45:02;;;;;;;9.93;7.85;;;20.80;99.90;;;;;;5072410;28;20064;-63
2022/07/25 02:47:28;;;;;;;8.55;7.70;;;20.80;99.90;;;;;;5072140;28;20495;-63
2022/07/25 02:49:54;;;;;;;8.43;7.53;;;20.90;99.90;;;;;;5070989;28;20056;-63
2022/07/25 02:52:19;;;;;;;9.75;7.90;;;21.10;99.90;;;;;;5071846;28;20030;-63
2022/07/25 02:54:45;;;;;;;10.93;7.45;;;21.30;99.90;;;;;;5071915;28;20477;-63
2022/07/25 02:57:11;;;;;;;11.15;7.25;;;21.40;99.90;;;;;;5071642;28;20082;-63
2022/07/25 02:59:36;;;;;;;9.93;7.40;;;21.50;99.90;;;;;;5070189;28;20055;-63
2022/07/25 03:02:02;;;;;;;10.68;7.13;;;21.60;99.90;;;;;;5070711;28;20024;-63
2022/07/25 03:04:29;;;;;;;10.65;7.20;;;21.70;99.90;;;;;;5071935;28;20032;-63
2022/07/25 03:06:55;;;;;;;8.35;6.93;;;21.80;99.90;;;;;;5071986;28;20469;-64
2022/07/25 03:09:20;;;;;;;11.65;7.25;;;21.90;99.90;;;;;;5072136;28;20032;-63
2022/07/25 03:11:46;;;;;;;7.95;6.90;;;21.90;99.90;;;;;;5070460;28;20032;-63
2022/07/25 03:14:12;;;;;;;10.00;6.75;;;21.90;99.90;;;;;;5071580;28;20186;-63
2022/07/25 03:16:37;;;;;;;6.68;5.78;;;21.80;99.90;;;;;;5071732;28;20077;-63
2022/07/25 03:19:03;;;;;;;7.20;4.95;;;21.80;99.90;;;;;;5071803;28;20397;-63
2022/07/25 03:21:28;;;;;;;5.88;5.05;;;21.70;99.90;;;;;;5071570;28;20021;-63
2022/07/25 03:23:54;;;;;;;5.60;4.65;;;21.70;99.90;;;;;;5071273;28;20024;-63
2022/07/25 03:26:20;;;;;;;6.32;4.97;;;21.80;99.90;;;;;;5071377;28;20076;-64
2022/07/25 03:28:45;;;;;;;6.57;4.88;;;21.70;99.90;;;;;;5071822;28;20028;-62
2022/07/25 03:31:11;;;;;;;5.07;4.50;;;21.70;99.90;;;;;;5070142;28;20544;-63
2022/07/25 03:33:36;;;;;;;6.25;4.60;;;21.70;99.90;;;;;;5071066;28;20033;-63
2022/07/25 03:36:02;;;;;;;6.57;4.88;;;21.70;99.90;;;;;;5071424;28;20033;-63
2022/07/25 03:38:28;;;;;;;6.30;4.25;;;21.70;99.90;;;;;;5071735;28;20028;-63
2022/07/25 03:40:54;;;;;;;7.65;4.55;;;21.70;99.90;;;;;;5071213;28;20507;-62
2022/07/25 03:43:19;;;;;;;4.88;4.28;;;21.70;99.90;;;;;;5069941;28;20051;-63
2022/07/25 03:45:45;;;;;;;10.00;4.20;;;21.70;99.90;;;;;;5071496;28;20449;-63
2022/07/25 03:48:11;;;;;;;8.15;4.43;;;21.50;99.90;;;;;;5071256;28;20108;-63
2022/07/25 03:50:37;;;;;;;5.75;4.00;;;21.50;99.90;;;;;;5071629;28;20078;-62
2022/07/25 03:53:03;;;;;;;4.28;3.58;;;21.40;99.90;;;;;;5071067;28;20158;-62
2022/07/25 03:55:28;;;;;;;8.63;3.67;;;21.40;99.90;;;;;;5071351;28;20508;-62
2022/07/25 03:57:54;;;;;;;4.22;3.10;;;21.30;99.90;;;;;;5071122;28;20040;-63
2022/07/25 04:00:20;;;;;;;3.88;3.22;;;21.40;99.90;;;;;;5071287;28;20031;-63
2022/07/25 04:02:45;;;;;;;4.55;2.90;;;21.50;99.90;;;;;;5071101;28;20032;-62
2022/07/25 04:05:11;;;;;;;3.33;2.90;;;21.50;99.90;;;;;;5070965;28;20043;-63
2022/07/25 04:07:37;;;;;;;3.80;2.80;;;21.50;99.90;;;;;;5071509;28;20082;-63
2022/07/25 04:10:06;;;;;;;3.17;2.70;;;21.50;99.90;;;;;;5071713;28;20029;-62
2022/07/25 04:12:32;;;;;;;6.18;2.50;;;21.50;99.90;;;;;;5074977;28;20090;-63
2022/07/25 04:14:58;;;;;;;4.93;2.55;;;21.40;99.90;;;;;;5075105;28;20025;-63
2022/07/25 04:17:23;;;;;;;2.70;2.22;;;21.50;99.90;;;;;;5073657;28;20492;-62
2022/07/25 04:19:49;;;;;;;4.38;2.17;;;21.50;99.90;;;;;;5075411;28;20027;-62
2022/07/25 04:22:15;;;;;;;3.28;2.50;;;21.40;99.90;;;;;;5074920;28;20039;-62
2022/07/25 04:24:40;;;;;;;4.25;2.25;;;21.30;99.90;;;;;;5074910;28;20031;-63
2022/07/25 04:27:06;;;;;;;5.10;2.47;;;21.30;99.90;;;;;;5074793;28;20025;-62
2022/07/25 04:29:32;;;;;;;3.00;2.00;;;21.20;99.90;;;;;;5075271;28;20051;-62
2022/07/25 04:31:57;;;;;;;2.75;2.10;;;21.20;99.90;;;;;;5074808;28;20381;-62
2022/07/25 04:34:23;;;;;;;6.40;1.88;;;21.10;99.90;;;;;;5075300;28;20481;-62
2022/07/25 04:36:48;;;;;;;3.22;2.20;;;21.20;99.90;;;;;;5074493;28;20020;-63
2022/07/25 04:39:14;;;;;;;6.80;2.47;;;21.20;99.90;;;;;;5074996;28;20024;-62
2022/07/25 04:41:40;;;;;;;5.60;2.08;;;21.20;99.90;;;;;;5073834;28;20055;-62
2022/07/25 04:44:06;;;;;;;7.22;1.75;;;21.10;99.90;;;;;;5074710;28;20104;-62
2022/07/25 04:46:32;;;;;;;4.15;2.00;;;21.10;99.90;;;;;;5074955;28;20468;-63
2022/07/25 04:48:58;;;;;;;3.33;1.88;;;21.10;99.90;;;;;;5074820;28;20100;-63
2022/07/25 04:51:23;;;;;;;7.43;2.00;;;21.00;99.90;;;;;;5074381;28;20039;-63
2022/07/25 04:53:49;;;;;;;7.18;2.33;;;21.00;99.90;;;;;;5074454;28;20028;-63
2022/07/25 04:56:15;;;;;;;5.20;2.17;;;21.00;99.90;;;;;;5074238;28;20025;-63
2022/07/25 04:58:41;;;;;;;4.30;2.33;;;21.00;99.90;;;;;;5073229;28;20040;-63
2022/07/25 05:01:06;;;;;;;5.30;2.03;;;21.00;99.90;;;;;;5074726;28;20470;-62
2022/07/25 05:03:32;;;;;;;5.60;2.15;;;20.90;99.90;;;;;;5074512;28;20107;-63
2022/07/25 05:05:58;;;;;;;6.30;2.28;;;20.90;99.90;;;;;;5073303;28;20040;-62
2022/07/25 05:08:23;;;;;;;4.28;2.17;;;21.00;99.90;;;;;;5074384;28;20066;-63
2022/07/25 05:10:49;;;;;;;4.72;2.10;;;20.90;99.90;;;;;;5074168;28;20033;-62
2022/07/25 05:13:15;;;;;;;6.78;2.20;;;20.90;99.90;;;;;;5073955;28;20043;-62
2022/07/25 05:15:40;;;;;;;10.65;3.10;;;20.90;99.90;;;;;;5074102;28;20027;-62
2022/07/25 05:18:06;;;;;;;6.95;2.55;;;20.80;99.90;;;;;;5074338;28;20021;-63
2022/07/25 05:20:32;;;;;;;5.88;2.45;;;20.90;99.90;;;;;;5073557;28;20025;-64
2022/07/25 05:22:57;;;;;;;8.57;2.85;;;20.90;99.90;;;;;;5073242;28;20028;-64
2022/07/25 05:25:24;;;;;;;5.90;2.38;;;20.90;99.90;;;;;;5073652;28;20568;-63
2022/07/25 05:27:50;;;;;;;4.60;2.05;;;21.00;99.90;;;;;;5073791;28;20039;-63
2022/07/25 05:30:16;;;;;;;5.75;2.38;;;21.00;99.90;;;;;;5073494;28;20028;-64
2022/07/25 05:32:42;;;;;;;9.52;2.53;;;21.10;99.90;;;;;;5073583;28;20028;-63
2022/07/25 05:35:08;;;;;;;7.85;2.42;;;21.10;99.90;;;;;;5073724;28;20389;-63
2022/07/25 05:37:35;;;;;;;6.55;2.63;;;21.10;99.90;;;;;;5073438;28;20370;-64
2022/07/25 05:40:01;;;;;;;6.07;2.80;;;21.10;99.90;;;;;;5073445;28;20029;-63
2022/07/25 05:42:27;;;;;;;6.43;2.60;;;21.10;99.90;;;;;;5073472;28;20039;-63
2022/07/25 05:44:53;;;;;;;7.80;2.92;;;21.20;99.90;;;;;;5072175;28;20485;-64
2022/07/25 05:47:18;;;;;;;6.07;2.90;;;21.10;99.90;;;;;;5073185;28;20025;-63
2022/07/25 05:49:44;;;;;;;6.30;2.40;;;21.10;99.90;;;;;;5073729;28;20028;-64
2022/07/25 05:52:10;;;;;;;6.65;2.72;;;21.00;99.90;;;;;;5072359;28;20021;-64
2022/07/25 05:54:36;;;;;;;6.65;2.63;;;21.00;99.90;;;;;;5071933;28;20029;-63
2022/07/25 05:57:02;;;;;;;7.47;2.70;;;21.10;99.90;;;;;;5073320;28;20366;-64
2022/07/25 05:59:28;;;;;;;6.63;2.75;;;21.00;99.90;;;;;;5073181;28;20115;-63
2022/07/25 06:01:53;;;;;;;7.45;2.80;;;20.90;99.90;;;;;;5072941;28;20111;-62
2022/07/25 06:04:19;;;;;;;6.22;2.40;;;20.90;99.90;;;;;;5073131;28;20039;-62
2022/07/25 06:06:49;;;;;;;6.78;2.65;;;20.80;99.90;;;;;;5072934;28;20051;-62
2022/07/25 06:09:17;;;;;;;5.03;2.40;;;21.00;99.90;;;;;;5073182;28;20419;-67
2022/07/25 06:11:42;;;;;;;5.07;2.00;;;21.00;99.90;;;;;;5071200;28;20122;-62
2022/07/25 06:14:08;;;;;;;5.68;2.75;;;21.10;99.90;;;;;;5072646;28;20088;-63
2022/07/25 06:16:33;;;;;;;8.45;2.72;;;21.10;99.90;;;;;;5072869;28;20025;-62
2022/07/25 06:18:59;;;;;;;9.63;2.75;;;21.10;99.90;;;;;;5072768;28;20012;-62
2022/07/25 06:21:25;;;;;;;5.32;2.30;;;21.10;99.90;;;;;;5072595;28;20572;-62
2022/07/25 06:23:50;;;;;;;8.40;3.03;;;21.00;99.90;;;;;;5072561;28;20020;-62
2022/07/25 06:26:16;;;;;;;7.40;2.92;;;21.00;99.90;;;;;;5072697;28;20482;-62
2022/07/25 06:28:41;;;;;;;7.72;2.80;;;21.00;99.90;;;;;;5072668;28;20392;-62
2022/07/25 06:31:07;;;;;;;8.98;2.97;;;21.20;99.90;;;;;;5072519;28;20028;-62
2022/07/25 06:33:33;;;;;;;7.25;3.13;;;21.50;99.90;;;;;;5071509;28;20036;-63
2022/07/25 06:35:58;;;;;;;13.05;3.42;;;21.50;99.90;;;;;;5072733;28;20039;-63
2022/07/25 06:38:24;;;;;;;10.68;3.33;;;21.30;99.90;;;;;;5072632;28;20016;-63
2022/07/25 06:40:50;;;;;;;8.38;3.67;;;21.30;99.90;;;;;;5072398;28;20046;-62
2022/07/25 06:43:15;;;;;;;7.43;3.03;;;21.40;99.90;;;;;;5072177;28;20020;-62
2022/07/25 06:45:45;;;;;;;7.53;2.65;;;21.60;99.90;;;;;;5072388;28;20039;-63
2022/07/25 06:48:12;;;;;;;13.50;3.10;;;21.90;99.90;;;;;;5072930;28;20473;-63
2022/07/25 06:50:38;;;;;;;5.50;2.65;;;22.30;99.90;;;;;;5072094;28;20553;-62
2022/07/25 06:53:03;;;;;;;4.75;2.47;;;22.20;99.90;;;;;;5071663;28;20112;-62
2022/07/25 06:55:29;;;;;;;10.98;2.67;;;22.40;99.90;;;;;;5071717;28;20074;-62
2022/07/25 06:57:54;;;;;;;8.52;3.00;;;22.20;99.90;;;;;;5071735;28;20044;-63
2022/07/25 07:00:20;;;;;;;4.65;2.17;;;22.90;99.90;;;;;;5071534;28;20076;-63
2022/07/25 07:02:50;;;;;;;4.63;2.38;;;23.80;99.90;;;;;;5072020;28;20470;-63
2022/07/25 07:05:16;;;;;;;3.72;2.17;;;23.80;99.90;;;;;;5071924;28;20032;-62
2022/07/25 07:07:42;;;;;;;5.45;2.20;;;23.60;99.90;;;;;;5071634;28;20439;-63
2022/07/25 07:10:08;;;;;;;4.32;2.20;;;23.40;99.90;;;;;;5071794;28;20037;-63
2022/07/25 07:12:33;;;;;;;9.52;2.25;;;23.60;99.90;;;;;;5071339;28;20025;-63
2022/07/25 07:14:59;;;;;;;6.00;1.90;;;23.80;99.90;;;;;;5071420;28;20031;-63
2022/07/25 07:17:25;;;;;;;8.73;2.08;;;23.90;99.90;;;;;;5071501;28;20021;-64
2022/07/25 07:19:50;;;;;;;5.47;1.60;;;24.80;99.90;;;;;;5071288;28;20066;-63
2022/07/25 07:22:16;;;;;;;5.93;1.90;;;26.20;99.90;;;;;;5071766;28;20047;-64
2022/07/25 07:24:41;;;;;;;5.57;2.00;;;26.90;99.90;;;;;;5071468;28;20104;-63
2022/07/25 07:27:07;;;;;;;5.45;1.80;;;26.40;99.90;;;;;;5071720;28;20492;-63
2022/07/25 07:29:33;;;;;;;4.15;1.98;;;26.00;99.90;;;;;;5071355;28;20056;-63
2022/07/25 07:31:58;;;;;;;3.58;2.05;;;26.50;99.90;;;;;;5070928;28;20020;-64
2022/07/25 07:34:24;;;;;;;4.35;2.20;;;26.50;99.90;;;;;;5071039;28;20028;-63
2022/07/25 07:36:51;;;;;;;3.58;1.70;;;25.70;99.90;;;;;;5069548;28;20024;-63
2022/07/25 07:39:16;;;;;;;4.38;1.83;;;25.40;99.90;;;;;;5071256;28;20023;-63
2022/07/25 07:41:42;;;;;;;4.75;1.83;;;25.80;99.90;;;;;;5070990;28;20025;-63
2022/07/25 07:44:07;;;;;;;3.95;1.83;;;26.70;99.90;;;;;;5070470;28;20025;-63
2022/07/25 07:46:33;;;;;;;4.15;1.63;;;27.30;99.90;;;;;;5071258;28;20105;-64
2022/07/25 07:48:59;;;;;;;4.43;1.52;;;26.80;99.90;;;;;;5071543;28;20028;-64
2022/07/25 07:51:24;;;;;;;2.60;1.63;;;27.20;99.90;;;;;;5070942;28;20397;-64
2022/07/25 07:56:34;;;;;;;5.38;1.60;;;26.60;99.90;;;;;;5070837;28;20075;-64
2022/07/25 07:59:00;;;;;;;6.75;1.60;;;27.50;99.90;;;;;;5070661;28;20056;-64
2022/07/25 08:01:26;;;;;;;5.65;1.65;;;26.90;99.90;;;;;;5071015;28;20509;-64
2022/07/25 08:03:51;;;;;;;2.53;1.20;;;26.80;99.90;;;;;;5071146;28;20488;-65
2022/07/25 08:06:17;;;;;;;5.68;1.60;;;27.50;99.90;;;;;;5069365;28;20043;-64
2022/07/25 08:08:43;;;;;;;3.33;1.70;;;27.80;99.90;;;;;;5071063;28;20120;-64
2022/07/25 08:11:09;;;;;;;3.30;1.55;;;28.30;99.90;;;;;;5071122;28;20028;-65
2022/07/25 08:13:36;;;;;;;3.60;1.45;;;28.70;99.90;;;;;;5071409;28;20082;-63
2022/07/25 08:16:03;;;;;;;3.45;1.52;;;28.60;99.90;;;;;;5071384;28;20035;-65
2022/07/25 08:18:30;;;;;;;4.47;1.60;;;27.60;99.90;;;;;;5071804;28;20024;-64
2022/07/25 08:20:56;;;;;;;7.93;1.67;;;27.70;99.90;;;;;;5071671;28;20051;-65
2022/07/25 08:23:21;;;;;;;3.53;1.92;;;27.70;99.90;;;;;;5070881;28;20434;-62
2022/07/25 08:25:48;;;;;;;6.70;1.50;;;27.30;99.90;;;;;;5069838;28;20028;-63
2022/07/25 08:28:14;;;;;;;2.53;1.50;;;27.60;99.90;;;;;;5071114;28;20077;-63
2022/07/25 08:30:41;;;;;;;4.10;1.45;;;28.30;99.90;;;;;;5070750;28;20037;-63
2022/07/25 08:33:09;;;;;;;8.02;1.80;;;28.70;99.90;;;;;;5070435;28;20058;-64
2022/07/25 08:35:36;;;;;;;4.63;1.75;;;29.30;99.90;;;;;;5070610;28;20024;-62
2022/07/25 08:38:03;;;;;;;5.68;1.88;;;27.20;99.90;;;;;;5070984;28;20032;-63
2022/07/25 08:40:30;;;;;;;5.88;1.63;;;26.50;99.90;;;;;;5070702;28;20052;-64
2022/07/25 08:42:59;;;;;;;4.10;1.75;;;26.80;99.90;;;;;;5070425;28;20040;-64
2022/07/25 08:45:27;;;;;;;4.22;1.40;;;28.50;99.90;;;;;;5071272;28;20497;-64
2022/07/25 08:47:54;;;;;;;3.08;1.60;;;29.00;99.90;;;;;;5070295;28;20028;-64
2022/07/25 08:50:26;;;;;;;4.15;1.67;;;29.40;98.90;;;;;;5070714;28;20099;-64
2022/07/25 08:52:52;;;;;;;2.72;1.60;;;28.40;99.90;;;;;;5071322;28;20090;-64
2022/07/25 08:55:20;;;;;;;4.28;1.70;;;27.40;99.90;;;;;;5070946;28;20056;-64
2022/07/25 08:57:50;;;;;;;3.40;1.52;;;26.40;99.90;;;;;;5073748;28;20040;-61
2022/07/25 09:00:22;;;;;;;2.30;1.30;;;26.10;99.90;;;;;;5073223;28;20029;-64
2022/07/25 09:03:02;;;;;;;6.97;1.80;;;26.00;99.90;;;;;;5074072;28;20044;-64
2022/07/25 09:05:30;;;;;;;5.57;1.80;;;25.50;99.90;;;;;;5073978;28;20028;-62
2022/07/25 09:07:57;;;;;;;4.35;1.65;;;24.90;99.90;;;;;;5074353;28;20043;-62
2022/07/25 09:10:25;;;;;;;2.72;1.80;;;24.70;99.90;;;;;;5073769;28;20052;-64
2022/07/25 09:13:00;;;;;;;2.90;1.85;;;25.50;99.90;;;;;;5073693;28;20036;-63
2022/07/25 09:15:30;;;;;;;4.78;1.90;;;25.80;99.90;;;;;;5074197;28;20027;-63
2022/07/25 09:18:01;;;;;;;5.88;1.95;;;26.30;99.90;;;;;;5073826;28;20066;-63
2022/07/25 09:20:50;;;;;;;5.13;2.17;;;26.80;99.90;;;;;;5073715;28;20036;-63
2022/07/25 09:23:33;;;;;;;6.65;2.03;;;28.40;99.90;;;;;;5073822;28;20028;-65
2022/07/25 09:26:12;;;;;;;5.47;2.05;;;29.90;97.10;;;;;;5073618;28;20070;-65
2022/07/25 09:28:57;;;;;;;6.00;2.15;;;29.80;96.10;;;;;;5073739;28;20028;-63
2022/07/25 09:31:31;;;;;;;8.13;2.25;;;28.60;98.30;;;;;;5073637;28;20036;-62
2022/07/25 09:33:59;;;;;;;8.00;1.88;;;27.90;99.10;;;;;;5073506;28;20056;-62
2022/07/25 09:36:25;;;;;;;3.67;1.80;;;27.60;99.60;;;;;;5074075;28;20827;-62
2022/07/25 09:38:59;;;;;;;3.00;1.40;;;26.80;99.90;;;;;;5073640;28;20067;-63
2022/07/25 09:41:39;;;;;;;7.47;2.20;;;26.50;99.90;;;;;;5073341;28;20025;-62
2022/07/25 09:44:16;;;;;;;4.32;1.77;;;26.00;99.90;;;;;;5073248;28;20108;-63
2022/07/25 09:46:42;;;;;;;5.82;2.15;;;26.00;99.90;;;;;;5072905;28;20087;-62
2022/07/25 09:49:08;;;;;;;7.68;2.20;;;26.20;99.90;;;;;;5071935;28;20439;-63
2022/07/25 09:51:34;;;;;;;7.22;2.00;;;26.10;99.90;;;;;;5073040;28;20025;-65
2022/07/25 09:54:02;;;;;;;7.95;2.03;;;26.30;99.90;;;;;;5073079;28;20028;-64
2022/07/25 09:56:28;;;;;;;5.75;2.20;;;26.20;99.90;;;;;;5073129;28;20055;-62
2022/07/25 09:58:54;;;;;;;6.75;2.13;;;25.70;99.90;;;;;;5073012;28;20489;-62
2022/07/25 10:01:26;;;;;;;5.32;1.83;;;25.70;99.90;;;;;;5072801;28;20043;-62
2022/07/25 10:04:06;;;;;;;4.72;1.90;;;25.10;99.90;;;;;;5072969;28;20078;-62
2022/07/25 10:06:38;;;;;;;8.57;2.50;;;24.20;99.90;;;;;;5072839;28;20070;-62
2022/07/25 10:09:10;;;;;;;3.75;2.10;;;24.20;99.90;;;;;;5072771;28;20025;-62
2022/07/25 10:11:36;;;;;;;7.10;1.98;;;24.10;99.90;;;;;;5072991;28;20428;-62
2022/07/25 10:14:10;;;;;;;4.53;2.08;;;24.00;99.90;;;;;;5072500;28;20045;-63
2022/07/25 10:16:45;;;;;;;7.85;2.20;;;24.00;99.90;;;;;;5072887;28;20529;-62
2022/07/25 10:19:10;;;;;;;4.45;1.80;;;24.20;99.90;;;;;;5072793;28;20063;-63
2022/07/25 10:21:36;;;;;;;7.00;2.20;;;24.20;99.90;;;;;;5072894;28;20017;-63
2022/07/25 10:24:08;;;;;;;6.15;2.15;;;23.80;99.90;;;;;;5072552;28;20048;-63
2022/07/25 10:26:38;;;;;;;4.20;1.90;;;23.80;99.90;;;;;;5072445;28;20068;-62
2022/07/25 10:29:09;;;;;;;4.63;2.10;;;23.70;99.90;;;;;;5073103;28;20097;-64
2022/07/25 10:31:38;;;;;;;5.82;1.98;;;23.50;99.90;;;;;;5071873;28;20548;-63
2022/07/25 10:34:08;;;;;;;8.07;2.13;;;23.40;99.90;;;;;;5072297;28;20439;-63
2022/07/25 10:36:49;;;;;;;4.07;1.80;;;23.40;99.90;;;;;;5072107;28;20078;-63
2022/07/25 10:39:18;;;;;;;7.32;2.58;;;23.50;99.90;;;;;;5072539;28;20040;-63
2022/07/25 10:41:50;;;;;;;6.95;2.00;;;23.60;99.90;;;;;;5071877;28;20027;-63
2022/07/25 10:44:16;;;;;;;6.95;2.58;;;23.70;99.90;;;;;;5072560;28;20024;-63
2022/07/25 10:46:43;;;;;;;4.13;2.20;;;23.60;99.90;;;;;;5072086;28;20481;-64
2022/07/25 10:49:19;;;;;;;8.52;2.47;;;23.50;99.90;;;;;;5072258;28;20108;-64
2022/07/25 10:51:56;;;;;;;8.68;2.20;;;23.60;99.90;;;;;;5072339;28;20028;-62
2022/07/25 10:54:22;;;;;;;7.32;2.47;;;23.50;99.90;;;;;;5071825;28;20392;-61
2022/07/25 10:57:14;;;;;;;8.25;2.78;;;23.30;99.90;;;;;;5071583;28;20049;-61
2022/07/25 10:59:40;;;;;;;6.70;2.00;;;23.10;99.90;;;;;;5071956;28;20040;-61
2022/07/25 11:02:15;;;;;;;6.40;1.88;;;23.20;99.90;;;;;;5071929;28;20024;-61
2022/07/25 11:04:56;;;;;;;4.65;1.98;;;23.10;99.90;;;;;;5071637;28;20078;-62
2022/07/25 11:07:22;;;;;;;6.68;2.47;;;22.90;99.90;;;;;;5071797;28;20028;-61
2022/07/25 11:09:59;;;;;;;6.18;2.40;;;22.70;99.90;;;;;;5078430;28;20481;-63
2022/07/25 11:12:25;;;;;;;7.15;2.40;;;22.80;99.90;;;;;;5091803;28;20028;-63
2022/07/25 11:14:59;;;;;;;9.13;2.63;;;22.70;99.90;;;;;;5091968;28;20427;-62
2022/07/25 11:17:24;;;;;;;7.25;1.95;;;22.70;99.90;;;;;;5091975;28;20043;-63
2022/07/25 11:19:58;;;;;;;6.50;2.20;;;22.90;99.90;;;;;;5091231;28;20464;-61
2022/07/25 11:22:25;;;;;;;9.60;2.35;;;23.00;99.90;;;;;;5091967;28;20131;-61
2022/07/25 11:24:51;;;;;;;5.55;2.00;;;23.40;99.90;;;;;;5091460;28;20020;-62
2022/07/25 11:27:24;;;;;;;6.57;2.17;;;23.40;99.90;;;;;;5091822;28;20412;-61
2022/07/25 11:29:49;;;;;;;;;;;24.00;99.90;;;;;;5091503;28;20012;-62
2022/07/25 11:32:15;;;;;;;6.47;1.95;;;23.90;99.90;;;;;;5089492;28;19957;-62
2022/07/25 11:34:45;;;;;;;6.38;2.10;;;23.80;99.90;;;;;;5091703;28;20457;-62
2022/07/25 11:37:12;;;;;;;6.22;2.45;;;24.40;99.90;;;;;;5102387;28;20068;-63
2022/07/25 11:39:42;;;;;;;5.60;2.05;;;25.30;99.90;;;;;;5096703;28;20095;-64
2022/07/25 11:42:18;;;;;;;6.88;2.00;;;26.50;99.90;;;;;;5071046;28;20497;-63
2022/07/25 11:44:49;;;;;;;4.47;1.70;;;26.90;99.90;;;;;;5070833;28;20058;-64
2022/07/25 11:47:27;;;;;;;5.93;2.03;;;27.20;99.90;;;;;;5070977;28;20033;-63
2022/07/25 11:49:56;;;;;;;4.95;1.90;;;27.30;99.90;;;;;;5071176;28;20184;-62
2022/07/25 11:52:31;;;;;;;5.47;1.70;;;26.10;99.90;;;;;;5071245;28;20047;-63
2022/07/25 11:54:59;;;;;;;7.80;2.15;;;25.30;99.90;;;;;;5071035;28;20370;-63
2022/07/25 11:57:32;;;;;;;5.72;1.92;;;24.70;99.90;;;;;;5070736;28;20024;-63
2022/07/25 11:59:59;;;;;;;7.57;1.80;;;24.30;99.90;;;;;;5070906;28;20032;-63
2022/07/25 12:02:34;;;;;;;7.75;2.13;;;24.10;99.90;;;;;;5070983;28;20025;-64
2022/07/25 12:05:10;;;;;;;7.60;1.80;;;24.10;99.90;;;;;;5071138;28;20489;-63
2022/07/25 12:07:39;;;;;;;7.70;2.05;;;24.20;99.90;;;;;;5071122;28;20047;-63
2022/07/25 12:10:10;;;;;;;5.47;1.60;;;24.10;99.90;;;;;;5071116;28;20077;-64
2022/07/25 12:12:50;;;;;;;8.77;1.90;;;24.60;99.90;;;;;;5071111;28;20111;-64
2022/07/25 12:15:26;;;;;;;3.92;1.77;;;24.90;99.90;;;;;;5070820;28;20048;-63
2022/07/25 12:17:53;;;;;;;7.78;1.88;;;25.00;99.90;;;;;;5070897;28;20502;-63
2022/07/25 12:20:24;;;;;;;6.65;1.90;;;24.60;99.90;;;;;;5069268;28;20032;-63
2022/07/25 12:22:53;;;;;;;8.02;2.03;;;24.90;99.90;;;;;;5070892;28;20029;-63
2022/07/25 12:25:19;;;;;;;6.95;2.08;;;26.30;99.90;;;;;;5070733;28;20489;-63
2022/07/25 12:27:45;;;;;;;5.25;1.90;;;26.90;98.90;;;;;;5069432;28;20033;-64
2022/07/25 12:30:11;;;;;;;5.38;1.45;;;26.60;98.80;;;;;;5070580;28;20017;-64
2022/07/25 12:32:37;;;;;;;7.00;1.98;;;26.50;98.70;;;;;;5073785;28;20033;-63
2022/07/25 12:35:05;;;;;;;6.72;1.90;;;26.60;98.80;;;;;;5075343;28;20020;-65
2022/07/25 12:37:31;;;;;;;7.57;1.70;;;26.10;99.80;;;;;;5074182;28;20056;-64
2022/07/25 12:39:56;;;;;;;4.13;1.23;;;26.80;98.30;;;;;;5075154;28;20126;-64
2022/07/25 12:42:23;;;;;;;7.57;1.63;;;27.00;97.30;;;;;;5074717;28;20032;-63
2022/07/25 12:44:48;;;;;;;7.45;1.58;;;26.10;98.70;;;;;;5074336;28;20489;-63
2022/07/25 12:47:14;;;;;;;7.22;1.50;;;25.40;99.90;;;;;;5073970;28;20154;-63
2022/07/25 12:49:40;;;;;;;8.00;1.60;;;25.20;99.90;;;;;;5074038;28;20154;-63